Time;durP1;ratioP1;P1;durP2;ratioP2;P2;SDS_P1;SDS_P2;PMS_P1;PMS_P2;Temp;Humidity;BMP_temperature;BMP_pressure;BME280_temperature;BME280_humidity;BME280_pressure;Samples;Min_cycle;Max_cycle;Signal;HPM_P1;HPM_P2
2022/05/24 00:00:00;;;;;;;3.72;1.45;;;16.50;94.70;;;;;;5055143;28;20017;-68
2022/05/24 00:02:26;;;;;;;2.38;1.02;;;16.50;95.00;;;;;;5053590;28;20028;-68
2022/05/24 00:04:52;;;;;;;4.90;1.10;;;16.50;94.80;;;;;;5076185;28;20048;-68
2022/05/24 00:07:20;;;;;;;3.92;1.00;;;16.50;94.90;;;;;;5067352;28;20025;-68
2022/05/24 00:09:46;;;;;;;3.53;1.00;;;16.50;94.90;;;;;;5052199;28;20029;-68
2022/05/24 00:12:14;;;;;;;2.33;0.90;;;16.50;94.90;;;;;;5056881;28;20040;-68
2022/05/24 00:17:27;;;;;;;3.30;1.02;;;16.40;95.20;;;;;;5055086;28;20032;-68
2022/05/24 00:19:54;;;;;;;2.33;1.05;;;16.40;95.20;;;;;;5055998;28;20033;-68
2022/05/24 00:22:19;;;;;;;7.20;0.90;;;16.30;95.40;;;;;;5055885;28;20056;-68
2022/05/24 00:24:45;;;;;;;2.33;1.00;;;16.20;95.50;;;;;;5053173;28;20064;-68
2022/05/24 00:27:11;;;;;;;3.30;1.23;;;16.20;95.60;;;;;;5056878;28;20059;-67
2022/05/24 00:29:36;;;;;;;3.30;1.20;;;16.20;95.70;;;;;;5058332;28;20103;-68
2022/05/24 00:32:02;;;;;;;3.63;1.20;;;16.20;95.80;;;;;;5058509;28;20044;-67
2022/05/24 00:34:28;;;;;;;3.53;1.10;;;16.10;95.80;;;;;;5061569;28;20020;-68
2022/05/24 00:36:53;;;;;;;2.90;1.15;;;16.10;95.80;;;;;;5060305;28;20029;-68
2022/05/24 00:39:19;;;;;;;2.33;1.10;;;16.00;96.00;;;;;;5051605;28;20369;-68
2022/05/24 00:42:01;;;;;;;2.13;1.02;;;16.00;96.00;;;;;;5060987;28;20114;-68
2022/05/24 00:44:29;;;;;;;3.85;1.08;;;16.00;96.20;;;;;;5053419;28;20036;-68
2022/05/24 00:47:10;;;;;;;2.78;1.15;;;15.90;96.20;;;;;;5052713;28;20029;-68
2022/05/24 00:49:39;;;;;;;5.00;1.10;;;15.90;96.00;;;;;;5053062;28;20033;-69
2022/05/24 00:52:32;;;;;;;2.20;1.15;;;15.90;96.00;;;;;;5046498;28;20033;-68
2022/05/24 00:55:01;;;;;;;3.22;1.05;;;15.80;96.20;;;;;;5039712;28;20431;-68
2022/05/24 00:57:34;;;;;;;2.25;1.10;;;15.80;96.00;;;;;;5063611;28;20063;-68
2022/05/24 01:00:02;;;;;;;3.08;1.20;;;15.80;96.00;;;;;;5056390;28;20342;-68
2022/05/24 01:02:31;;;;;;;4.88;1.25;;;15.80;96.00;;;;;;5062233;28;20036;-67
2022/05/24 01:04:57;;;;;;;2.45;1.20;;;15.80;95.80;;;;;;5055034;28;20112;-68
2022/05/24 01:07:25;;;;;;;2.33;1.00;;;15.80;95.80;;;;;;5054796;28;20055;-68
2022/05/24 01:09:58;;;;;;;2.30;1.10;;;15.70;96.00;;;;;;5057095;28;20353;-68
2022/05/24 01:12:27;;;;;;;4.28;1.10;;;15.70;96.00;;;;;;5052002;28;20475;-68
2022/05/24 01:15:04;;;;;;;3.25;1.25;;;15.60;96.20;;;;;;5054185;28;20385;-68
2022/05/24 01:17:31;;;;;;;4.03;1.25;;;15.50;96.30;;;;;;5054646;28;20033;-68
2022/05/24 01:20:01;;;;;;;3.67;1.55;;;15.50;96.20;;;;;;5037641;28;20093;-68
2022/05/24 01:22:48;;;;;;;4.13;1.27;;;15.50;96.30;;;;;;5052562;28;20318;-68
2022/05/24 01:25:26;;;;;;;3.05;1.50;;;15.30;96.40;;;;;;5050614;28;20067;-68
2022/05/24 01:27:52;;;;;;;3.00;1.10;;;15.30;96.60;;;;;;5062280;28;20106;-68
2022/05/24 01:30:20;;;;;;;3.42;1.27;;;15.30;96.60;;;;;;5041656;28;20433;-68
2022/05/24 01:38:19;;;;;;;2.42;1.38;;;15.20;96.80;;;;;;5056248;28;20121;-68
2022/05/24 01:40:49;;;;;;;5.13;1.52;;;15.00;96.80;;;;;;5057056;28;20063;-68
2022/05/24 01:43:20;;;;;;;1.98;1.10;;;14.90;96.50;;;;;;5055935;28;20033;-67
2022/05/24 01:46:03;;;;;;;2.20;1.10;;;14.90;96.80;;;;;;5052433;28;20021;-67
2022/05/24 01:48:56;;;;;;;2.03;1.13;;;14.80;96.60;;;;;;5048932;28;20024;-69
2022/05/24 01:51:27;;;;;;;2.75;1.35;;;14.60;96.60;;;;;;5053974;28;20114;-68
2022/05/24 01:54:00;;;;;;;4.10;1.60;;;14.40;96.30;;;;;;5058534;28;20045;-68
2022/05/24 01:56:35;;;;;;;3.10;1.47;;;14.30;96.40;;;;;;5056097;28;20023;-68
2022/05/24 01:59:02;;;;;;;3.95;1.30;;;14.20;96.00;;;;;;5054099;28;20288;-69
2022/05/24 02:01:57;;;;;;;3.17;1.42;;;14.20;95.70;;;;;;5059262;28;20023;-68
2022/05/24 02:04:24;;;;;;;4.00;1.50;;;14.10;95.50;;;;;;5055651;28;20099;-67
2022/05/24 02:07:04;;;;;;;5.55;1.77;;;14.00;95.30;;;;;;5059590;28;20067;-68
2022/05/24 02:09:31;;;;;;;2.83;1.13;;;14.00;95.60;;;;;;5056675;28;20021;-68
2022/05/24 02:12:01;;;;;;;4.55;1.40;;;14.00;95.80;;;;;;5055280;28;20111;-68
2022/05/24 02:14:31;;;;;;;7.72;1.60;;;14.10;96.50;;;;;;5057372;28;20028;-68
2022/05/24 02:17:06;;;;;;;2.47;1.25;;;14.20;96.90;;;;;;5056730;28;20021;-68
2022/05/24 02:19:37;;;;;;;2.92;1.10;;;14.20;96.70;;;;;;5073597;28;20029;-68
2022/05/24 02:22:08;;;;;;;2.45;1.10;;;14.30;96.90;;;;;;5036008;28;20419;-68
2022/05/24 02:24:33;;;;;;;3.22;1.40;;;14.40;97.10;;;;;;5038481;28;20036;-67
2022/05/24 02:27:00;;;;;;;4.47;1.60;;;14.40;97.20;;;;;;5053566;28;20449;-67
2022/05/24 02:29:29;;;;;;;3.03;1.40;;;14.40;97.10;;;;;;5053280;28;20120;-68
2022/05/24 02:31:55;;;;;;;2.67;1.20;;;14.20;96.90;;;;;;5052895;28;20045;-68
2022/05/24 02:34:21;;;;;;;2.90;1.15;;;14.20;97.10;;;;;;5056610;28;20029;-68
2022/05/24 02:36:49;;;;;;;3.90;1.25;;;14.10;97.00;;;;;;5054455;28;20025;-68
2022/05/24 02:39:14;;;;;;;3.55;1.58;;;14.00;97.00;;;;;;5035715;28;20029;-69
2022/05/24 02:41:40;;;;;;;1.83;1.10;;;14.00;97.20;;;;;;5054473;28;20129;-68
2022/05/24 02:44:11;;;;;;;2.65;1.30;;;13.90;97.20;;;;;;5064370;28;20043;-68
2022/05/24 02:46:48;;;;;;;2.40;1.23;;;13.90;97.10;;;;;;5055852;28;20033;-68
2022/05/24 02:49:14;;;;;;;5.00;1.40;;;13.90;97.00;;;;;;5043338;28;20069;-68
2022/05/24 02:51:41;;;;;;;6.35;1.33;;;13.90;96.90;;;;;;5054481;28;20474;-68
2022/05/24 02:54:07;;;;;;;4.45;1.52;;;13.90;96.80;;;;;;5055115;28;20445;-68
2022/05/24 02:56:34;;;;;;;6.45;1.85;;;13.80;97.10;;;;;;5036454;28;20078;-68
2022/05/24 02:58:59;;;;;;;5.70;1.42;;;13.80;97.30;;;;;;5058260;28;20453;-68
2022/05/24 03:01:28;;;;;;;3.72;1.33;;;13.80;96.50;;;;;;5039437;28;20029;-68
2022/05/24 03:03:55;;;;;;;5.40;1.75;;;13.90;97.20;;;;;;5063623;28;20171;-68
2022/05/24 03:06:23;;;;;;;5.07;1.60;;;13.80;96.80;;;;;;5059173;28;20443;-67
2022/05/24 03:14:23;;;;;;;3.40;1.48;;;13.90;97.10;;;;;;5053927;28;20079;-67
2022/05/24 03:16:54;;;;;;;4.35;1.30;;;13.90;96.60;;;;;;5037050;28;20079;-68
2022/05/24 03:19:19;;;;;;;4.32;1.50;;;13.90;96.80;;;;;;5057123;28;20036;-68
2022/05/24 03:21:46;;;;;;;1.45;1.00;;;13.90;97.50;;;;;;5058820;28;20025;-68
2022/05/24 03:24:15;;;;;;;2.92;1.17;;;14.00;97.20;;;;;;5060561;28;20456;-68
2022/05/24 03:26:40;;;;;;;3.35;1.10;;;14.00;97.20;;;;;;5051748;28;20111;-68
2022/05/24 03:29:06;;;;;;;4.18;1.20;;;14.10;97.50;;;;;;5054305;28;20100;-68
2022/05/24 03:31:32;;;;;;;3.88;1.25;;;14.20;97.30;;;;;;5055364;28;20063;-69
2022/05/24 03:33:58;;;;;;;3.28;1.17;;;14.20;97.20;;;;;;5062446;28;20032;-68
2022/05/24 03:36:24;;;;;;;4.38;1.20;;;14.30;97.10;;;;;;5052518;28;20021;-68
2022/05/24 03:38:50;;;;;;;2.80;1.20;;;14.50;96.80;;;;;;5066032;28;20448;-68
2022/05/24 03:41:15;;;;;;;2.15;1.10;;;14.40;96.60;;;;;;5054823;28;20025;-69
2022/05/24 03:43:43;;;;;;;4.10;1.10;;;14.40;96.90;;;;;;5056119;28;20021;-68
2022/05/24 03:46:11;;;;;;;2.65;1.30;;;14.40;97.00;;;;;;5053368;28;20064;-69
2022/05/24 03:48:37;;;;;;;2.33;1.17;;;14.40;97.30;;;;;;5065801;28;20020;-69
2022/05/24 03:51:04;;;;;;;3.38;1.20;;;14.40;97.00;;;;;;5056970;28;20033;-69
2022/05/24 03:53:33;;;;;;;3.83;1.20;;;14.50;96.90;;;;;;5047075;28;20033;-69
2022/05/24 03:55:59;;;;;;;6.53;1.20;;;14.50;96.60;;;;;;5059410;28;20041;-69
2022/05/24 03:58:25;;;;;;;4.03;1.50;;;14.50;96.60;;;;;;5051257;28;20021;-68
2022/05/24 04:00:51;;;;;;;3.63;1.23;;;14.60;96.10;;;;;;5053033;28;20423;-68
2022/05/24 04:03:20;;;;;;;2.35;1.20;;;14.60;96.20;;;;;;5053130;28;20053;-69
2022/05/24 04:05:47;;;;;;;4.63;1.35;;;14.60;96.20;;;;;;5049498;28;20046;-68
2022/05/24 04:08:15;;;;;;;3.67;1.20;;;14.60;96.10;;;;;;5032769;28;20040;-68
2022/05/24 04:10:40;;;;;;;3.08;1.20;;;14.60;96.50;;;;;;5054616;28;20112;-68
2022/05/24 04:13:07;;;;;;;4.47;1.20;;;14.50;96.70;;;;;;5054081;28;20120;-68
2022/05/24 04:15:35;;;;;;;3.22;1.10;;;14.50;96.90;;;;;;5053775;28;20115;-68
2022/05/24 04:18:01;;;;;;;4.53;1.40;;;14.40;97.00;;;;;;5056230;28;20029;-69
2022/05/24 04:20:27;;;;;;;5.35;1.42;;;14.40;97.10;;;;;;5055550;28;20490;-68
2022/05/24 04:22:57;;;;;;;3.08;1.30;;;14.40;97.30;;;;;;5050852;28;20033;-69
2022/05/24 04:25:27;;;;;;;3.35;1.48;;;14.40;96.90;;;;;;5039353;28;20029;-68
2022/05/24 04:27:53;;;;;;;3.25;1.30;;;14.40;97.00;;;;;;5054555;28;20350;-68
2022/05/24 04:30:20;;;;;;;3.88;1.30;;;14.50;97.10;;;;;;5052883;28;20108;-68
2022/05/24 04:32:45;;;;;;;5.78;1.30;;;14.60;96.60;;;;;;5053964;28;20140;-68
2022/05/24 04:35:13;;;;;;;2.63;1.20;;;14.70;96.50;;;;;;5058218;28;20111;-68
2022/05/24 04:37:39;;;;;;;3.17;1.15;;;14.80;96.60;;;;;;5050636;28;20025;-68
2022/05/24 04:40:06;;;;;;;6.43;1.30;;;14.70;96.80;;;;;;5055443;28;20039;-68
2022/05/24 04:42:32;;;;;;;2.65;1.20;;;14.50;97.30;;;;;;5053525;28;20049;-70
2022/05/24 04:45:06;;;;;;;6.38;1.55;;;14.50;97.20;;;;;;5057880;28;20063;-70
2022/05/24 04:47:41;;;;;;;5.03;1.50;;;14.40;97.10;;;;;;5054135;28;20025;-69
2022/05/24 04:50:11;;;;;;;3.60;1.38;;;14.50;96.80;;;;;;5050335;28;20434;-69
2022/05/24 04:52:39;;;;;;;2.72;1.30;;;14.60;96.90;;;;;;5035008;28;20033;-68
2022/05/24 04:55:11;;;;;;;5.00;1.40;;;14.80;96.60;;;;;;5046686;28;20055;-69
2022/05/24 04:57:40;;;;;;;4.55;1.50;;;14.80;96.40;;;;;;5035470;28;20029;-69
2022/05/24 05:00:14;;;;;;;4.22;1.40;;;14.80;96.00;;;;;;5062147;28;20353;-69
2022/05/24 05:02:40;;;;;;;5.57;1.42;;;14.90;95.30;;;;;;5051675;28;20060;-68
2022/05/24 05:05:07;;;;;;;4.57;1.42;;;15.00;95.80;;;;;;5050119;28;20458;-68
2022/05/24 05:07:33;;;;;;;3.10;1.40;;;15.00;94.90;;;;;;5055415;28;20035;-68
2022/05/24 05:09:59;;;;;;;3.58;1.30;;;15.10;94.80;;;;;;5056234;28;20033;-68
2022/05/24 05:12:28;;;;;;;3.22;1.17;;;15.20;94.60;;;;;;5039721;28;20029;-68
2022/05/24 05:14:53;;;;;;;3.65;1.30;;;15.30;93.90;;;;;;5058079;28;20032;-68
2022/05/24 05:17:22;;;;;;;3.67;1.00;;;15.40;93.30;;;;;;5042504;28;20322;-68
2022/05/24 05:19:48;;;;;;;7.75;1.40;;;15.50;92.40;;;;;;5058604;28;20032;-68
2022/05/24 05:22:18;;;;;;;5.43;1.27;;;15.60;92.10;;;;;;5057815;28;20033;-68
2022/05/24 05:24:44;;;;;;;3.40;1.13;;;15.70;91.40;;;;;;5058237;28;20380;-68
2022/05/24 05:27:13;;;;;;;3.33;1.08;;;15.70;90.30;;;;;;5058331;28;20464;-68
2022/05/24 05:32:30;;;;;;;3.25;1.25;;;15.80;90.20;;;;;;5057274;28;20039;-68
2022/05/24 05:34:57;;;;;;;3.33;1.17;;;15.80;89.50;;;;;;5058821;28;20041;-68
2022/05/24 05:37:25;;;;;;;2.75;1.20;;;15.80;89.90;;;;;;5057417;28;20079;-68
2022/05/24 05:39:53;;;;;;;5.20;1.20;;;15.80;89.50;;;;;;5057903;28;20044;-68
2022/05/24 05:42:22;;;;;;;2.78;1.33;;;15.70;89.20;;;;;;5058056;28;20036;-68
2022/05/24 05:44:49;;;;;;;3.65;1.38;;;15.70;90.10;;;;;;5056704;28;20112;-68
2022/05/24 05:47:16;;;;;;;4.63;1.20;;;15.70;89.30;;;;;;5041294;28;20079;-68
2022/05/24 05:49:42;;;;;;;5.22;1.20;;;15.80;89.10;;;;;;5057936;28;20131;-68
2022/05/24 05:52:08;;;;;;;5.13;1.42;;;15.90;89.30;;;;;;5059148;28;20067;-69
2022/05/24 05:54:34;;;;;;;4.82;1.15;;;16.10;88.80;;;;;;5054332;28;20040;-68
2022/05/24 05:57:00;;;;;;;2.88;1.02;;;16.00;87.90;;;;;;5054809;28;20021;-68
2022/05/24 05:59:27;;;;;;;2.17;1.00;;;16.00;88.40;;;;;;5057867;28;20025;-69
2022/05/24 06:02:00;;;;;;;3.92;1.20;;;16.10;88.40;;;;;;5058676;28;20029;-70
2022/05/24 06:04:26;;;;;;;2.28;0.90;;;16.00;88.20;;;;;;5057442;28;20041;-69
2022/05/24 06:06:53;;;;;;;2.38;0.90;;;16.00;88.70;;;;;;5057791;28;20075;-68
2022/05/24 06:09:21;;;;;;;4.90;1.10;;;16.00;88.80;;;;;;5055499;28;20036;-68
2022/05/24 06:11:47;;;;;;;2.10;0.82;;;16.10;88.70;;;;;;5057596;28;20029;-69
2022/05/24 06:14:13;;;;;;;4.00;1.00;;;16.30;87.70;;;;;;5057301;28;20056;-68
2022/05/24 06:16:39;;;;;;;5.13;2.15;;;16.30;87.30;;;;;;5056443;28;20109;-68
2022/05/24 06:19:08;;;;;;;4.95;1.08;;;16.50;87.40;;;;;;5058221;28;20036;-68
2022/05/24 06:21:33;;;;;;;4.40;1.20;;;16.70;87.50;;;;;;5057243;28;20040;-68
2022/05/24 06:24:01;;;;;;;2.65;0.88;;;17.10;85.40;;;;;;5057260;28;20033;-68
2022/05/24 06:26:27;;;;;;;4.07;1.08;;;17.30;84.10;;;;;;5057125;28;20028;-69
2022/05/24 06:28:53;;;;;;;4.68;1.00;;;17.30;83.90;;;;;;5058092;28;20029;-68
2022/05/24 06:31:18;;;;;;;5.43;1.80;;;17.20;84.40;;;;;;5038579;28;20043;-69
2022/05/24 06:33:44;;;;;;;2.92;0.82;;;16.90;84.60;;;;;;5057708;28;20295;-69
2022/05/24 06:36:10;;;;;;;4.53;1.20;;;16.60;85.40;;;;;;5056775;28;20017;-68
2022/05/24 06:38:37;;;;;;;5.03;1.10;;;16.50;86.70;;;;;;5056618;28;20450;-70
2022/05/24 06:41:04;;;;;;;2.70;1.27;;;16.50;86.00;;;;;;5056938;28;20040;-69
2022/05/24 06:43:30;;;;;;;3.22;0.80;;;16.60;86.50;;;;;;5057199;28;20029;-68
2022/05/24 06:45:59;;;;;;;1.80;0.80;;;16.90;85.30;;;;;;5054881;28;20437;-68
2022/05/24 06:48:26;;;;;;;4.95;0.93;;;17.30;85.00;;;;;;5057738;28;20029;-69
2022/05/24 06:50:54;;;;;;;3.80;1.10;;;17.80;83.60;;;;;;5056651;28;20037;-69
2022/05/24 06:53:20;;;;;;;4.10;1.08;;;18.00;82.50;;;;;;5056485;28;20079;-69
2022/05/24 06:55:45;;;;;;;3.70;1.00;;;18.20;82.40;;;;;;5056579;28;20457;-69
2022/05/24 06:58:11;;;;;;;2.72;1.00;;;18.20;82.00;;;;;;5057582;28;20033;-69
2022/05/24 07:03:21;;;;;;;4.72;1.20;;;17.70;83.20;;;;;;5057463;28;20096;-69
2022/05/24 07:05:47;;;;;;;4.53;1.20;;;17.60;83.70;;;;;;5057283;28;20418;-68
2022/05/24 07:08:12;;;;;;;5.88;1.30;;;17.60;83.50;;;;;;5056215;28;20017;-68
2022/05/24 07:10:39;;;;;;;4.78;1.30;;;17.60;83.70;;;;;;5056201;28;20028;-68
2022/05/24 07:13:08;;;;;;;2.63;1.00;;;17.50;83.90;;;;;;5055162;28;20029;-69
2022/05/24 07:15:34;;;;;;;3.30;0.90;;;17.80;84.30;;;;;;5055183;28;20025;-69
2022/05/24 07:18:01;;;;;;;3.15;1.10;;;17.90;83.70;;;;;;5057233;28;20025;-69
2022/05/24 07:20:34;;;;;;;11.05;1.23;;;17.70;85.90;;;;;;5056689;28;20036;-68
2022/05/24 07:23:18;;;;;;;3.45;1.33;;;16.70;87.90;;;;;;5037094;28;20025;-68
2022/05/24 07:25:45;;;;;;;1.60;0.82;;;15.40;92.60;;;;;;5056313;28;20025;-67
2022/05/24 07:28:15;;;;;;;3.78;1.10;;;13.90;94.20;;;;;;5056098;28;20017;-67
2022/05/24 07:30:46;;;;;;;6.13;0.90;;;13.20;96.50;;;;;;5054190;28;20033;-67
2022/05/24 07:33:16;;;;;;;2.67;1.00;;;12.90;96.50;;;;;;5056647;28;20057;-67
2022/05/24 07:35:43;;;;;;;3.05;1.10;;;12.60;96.30;;;;;;5038152;28;20036;-67
2022/05/24 07:38:10;;;;;;;1.95;0.95;;;12.50;96.60;;;;;;5055722;28;20468;-68
2022/05/24 07:46:12;;;;;;;6.53;1.10;;;12.40;96.60;;;;;;5055278;28;20072;-69
2022/05/24 07:48:41;;;;;;;3.50;0.90;;;12.40;96.40;;;;;;5055461;28;20033;-69
2022/05/24 07:51:07;;;;;;;3.70;0.95;;;12.40;97.30;;;;;;5054968;28;20418;-69
2022/05/24 07:53:35;;;;;;;1.35;0.77;;;12.50;96.30;;;;;;5054810;28;20037;-69
2022/05/24 07:56:02;;;;;;;1.98;0.82;;;12.80;97.80;;;;;;5038822;28;20032;-68
2022/05/24 07:58:27;;;;;;;2.08;1.02;;;12.90;96.70;;;;;;5056117;28;20021;-68
2022/05/24 08:01:02;;;;;;;3.92;1.02;;;13.00;96.50;;;;;;5090295;27;20435;-69
2022/05/24 08:03:30;;;;;;;1.75;0.90;;;13.20;96.80;;;;;;5089628;28;20039;-68
2022/05/24 08:05:56;;;;;;;2.90;1.02;;;13.50;96.40;;;;;;5089908;28;20030;-68
2022/05/24 08:08:22;;;;;;;2.20;0.90;;;13.80;95.60;;;;;;5087707;28;20085;-69
2022/05/24 08:10:48;;;;;;;2.55;0.90;;;14.40;94.40;;;;;;5093277;28;20013;-68
2022/05/24 08:13:16;;;;;;;2.95;0.80;;;14.80;93.20;;;;;;5074240;28;20025;-68
2022/05/24 08:15:42;;;;;;;1.63;0.70;;;15.20;91.80;;;;;;5072977;28;20044;-68
2022/05/24 08:18:08;;;;;;;2.47;0.75;;;15.20;89.10;;;;;;5072566;28;20059;-68
2022/05/24 08:20:35;;;;;;;2.17;0.80;;;15.00;90.40;;;;;;5072814;28;20303;-69
2022/05/24 08:23:01;;;;;;;0.77;0.60;;;14.80;91.50;;;;;;5084659;28;20056;-68
2022/05/24 08:25:28;;;;;;;1.02;0.60;;;14.70;91.10;;;;;;5091068;28;20418;-68
2022/05/24 08:28:05;;;;;;;1.02;0.63;;;15.00;91.00;;;;;;5093086;28;20044;-68
2022/05/24 08:30:31;;;;;;;3.03;0.80;;;15.10;89.10;;;;;;5082576;28;20371;-68
2022/05/24 08:32:57;;;;;;;2.15;0.70;;;15.00;89.40;;;;;;5092932;28;20029;-69
2022/05/24 08:35:24;;;;;;;1.15;0.57;;;15.10;89.20;;;;;;5092987;28;20474;-68
2022/05/24 08:37:49;;;;;;;2.20;0.50;;;15.10;87.30;;;;;;5091698;28;20036;-68
2022/05/24 08:40:17;;;;;;;2.72;0.60;;;15.10;87.90;;;;;;5087938;28;20321;-68
2022/05/24 08:42:58;;;;;;;1.63;0.63;;;15.50;87.30;;;;;;5078678;28;20029;-68
2022/05/24 08:48:53;;;;;;;1.77;0.70;;;15.50;86.60;;;;;;5072270;28;20047;-68
2022/05/24 08:51:24;;;;;;;1.45;0.80;;;15.10;86.10;;;;;;5091500;28;20380;-68
2022/05/24 08:53:54;;;;;;;1.75;0.70;;;14.80;86.30;;;;;;5090132;28;20025;-68
2022/05/24 08:56:34;;;;;;;2.72;0.90;;;15.00;87.50;;;;;;5091489;28;20112;-68
2022/05/24 08:59:14;;;;;;;2.00;0.75;;;15.10;86.40;;;;;;5089952;28;20090;-68
2022/05/24 09:01:42;;;;;;;2.13;0.73;;;15.00;86.10;;;;;;5071110;28;20085;-69
2022/05/24 09:04:09;;;;;;;1.73;0.70;;;15.00;86.60;;;;;;5092443;28;20413;-69
2022/05/24 09:07:09;;;;;;;1.60;0.70;;;15.00;85.90;;;;;;5089223;28;20108;-68
2022/05/24 09:09:48;;;;;;;2.78;0.80;;;15.40;86.20;;;;;;5050895;28;20104;-69
2022/05/24 09:12:44;;;;;;;1.02;0.70;;;16.10;83.80;;;;;;5061800;28;20039;-68
2022/05/24 09:15:21;;;;;;;0.95;0.57;;;16.00;82.40;;;;;;5071523;28;20064;-68
2022/05/24 09:18:21;;;;;;;2.08;0.60;;;15.80;82.00;;;;;;5058974;28;20040;-68
2022/05/24 09:20:47;;;;;;;3.60;0.98;;;15.70;81.70;;;;;;5078594;28;20024;-68
2022/05/24 09:23:22;;;;;;;3.58;1.15;;;15.60;83.10;;;;;;5057224;28;20024;-68
2022/05/24 09:25:56;;;;;;;1.92;0.80;;;15.70;84.40;;;;;;5062565;28;20037;-68
2022/05/24 09:28:44;;;;;;;1.98;0.90;;;15.50;83.80;;;;;;5046834;28;20037;-68
2022/05/24 09:31:20;;;;;;;2.42;0.80;;;15.40;84.30;;;;;;5052232;28;20025;-68
2022/05/24 09:33:46;;;;;;;2.45;0.98;;;15.50;84.60;;;;;;5072552;28;20025;-69
2022/05/24 09:36:29;;;;;;;4.18;1.02;;;16.00;84.00;;;;;;5061533;28;20079;-68
2022/05/24 09:38:56;;;;;;;1.50;0.70;;;16.80;81.10;;;;;;5055574;28;20028;-68
2022/05/24 09:41:26;;;;;;;1.75;0.63;;;17.10;79.70;;;;;;5056693;28;20033;-69
2022/05/24 09:44:08;;;;;;;7.70;0.80;;;17.10;78.40;;;;;;5056733;28;20048;-68
2022/05/24 09:46:36;;;;;;;2.78;0.80;;;16.80;79.40;;;;;;5057267;28;20406;-69
2022/05/24 09:49:31;;;;;;;7.20;1.10;;;16.50;79.60;;;;;;5060005;28;20127;-68
2022/05/24 09:52:08;;;;;;;;;;;16.10;80.50;;;;;;5055028;28;20028;-68
2022/05/24 09:54:56;;;;;;;3.72;0.73;;;16.00;80.10;;;;;;5053724;28;19909;-69
2022/05/24 09:57:28;;;;;;;1.92;0.75;;;15.90;81.20;;;;;;5054670;28;20051;-68
2022/05/24 10:00:08;;;;;;;1.67;0.73;;;15.70;81.60;;;;;;5050688;28;20073;-68
2022/05/24 10:02:36;;;;;;;1.83;0.80;;;16.40;80.20;;;;;;5057040;28;20056;-69
2022/05/24 10:05:11;;;;;;;2.50;0.82;;;16.90;79.00;;;;;;5075947;28;20021;-69
2022/05/24 10:07:39;;;;;;;1.73;0.70;;;18.10;76.20;;;;;;5075860;28;20078;-69
2022/05/24 10:10:19;;;;;;;1.83;0.75;;;19.20;74.80;;;;;;5065355;28;20060;-69
2022/05/24 10:13:06;;;;;;;2.78;0.60;;;19.40;70.70;;;;;;5056802;28;20029;-68
2022/05/24 10:16:21;;;;;;;4.10;2.30;;;18.60;72.30;;;;;;5054308;28;20025;-67
2022/05/24 10:19:08;;;;;;;5.40;3.87;;;17.60;73.00;;;;;;5053268;28;20029;-67
2022/05/24 10:22:02;;;;;;;4.40;1.88;;;18.10;73.30;;;;;;5057345;28;20100;-68
2022/05/24 10:24:38;;;;;;;2.15;0.70;;;17.80;74.10;;;;;;5045993;28;20025;-68
2022/05/24 10:27:28;;;;;;;1.55;0.65;;;17.70;74.00;;;;;;5057295;28;20029;-69
2022/05/24 10:30:03;;;;;;;1.35;0.57;;;17.20;75.00;;;;;;5056176;28;20482;-67
2022/05/24 10:39:11;;;;;;;3.00;0.70;;;17.30;74.50;;;;;;5054071;28;20532;-68
2022/05/24 10:42:01;;;;;;;1.05;0.60;;;18.00;74.60;;;;;;5057129;28;20101;-68
2022/05/24 10:44:42;;;;;;;0.70;0.50;;;19.00;72.70;;;;;;5056054;28;20017;-68
2022/05/24 10:47:24;;;;;;;1.48;0.52;;;18.70;70.80;;;;;;5055666;28;20041;-68
2022/05/24 10:50:06;;;;;;;3.28;0.50;;;18.00;73.30;;;;;;5056848;28;20036;-68
2022/05/24 10:53:00;;;;;;;1.00;0.57;;;17.80;72.50;;;;;;5056654;28;20099;-67
2022/05/24 10:55:31;;;;;;;1.42;0.50;;;18.40;72.10;;;;;;5056077;28;20421;-68
2022/05/24 10:58:05;;;;;;;2.47;0.60;;;18.50;71.90;;;;;;5053974;28;20069;-67
2022/05/24 11:00:53;;;;;;;1.20;0.60;;;18.10;71.10;;;;;;5053162;28;20483;-68
2022/05/24 11:03:51;;;;;;;0.65;0.50;;;17.80;71.70;;;;;;5086099;28;20140;-68
2022/05/24 11:06:47;;;;;;;1.45;0.70;;;17.70;73.20;;;;;;5051397;28;20222;-67
2022/05/24 11:09:15;;;;;;;1.30;0.52;;;17.70;73.00;;;;;;5047547;28;20030;-68
2022/05/24 11:12:02;;;;;;;2.38;0.77;;;17.60;73.30;;;;;;5049915;28;20038;-68
2022/05/24 11:14:33;;;;;;;1.45;0.52;;;17.40;73.40;;;;;;5044683;28;20028;-68
2022/05/24 11:17:00;;;;;;;1.30;0.70;;;17.80;73.90;;;;;;5062511;28;20033;-68
2022/05/24 11:19:35;;;;;;;2.67;0.73;;;19.20;71.70;;;;;;5057184;28;20290;-68
2022/05/24 11:22:10;;;;;;;1.40;0.60;;;20.50;69.30;;;;;;5062573;28;20302;-68
2022/05/24 11:25:00;;;;;;;1.83;0.60;;;21.30;65.20;;;;;;5067617;28;20021;-68
2022/05/24 11:27:38;;;;;;;2.80;0.80;;;21.60;64.90;;;;;;5051004;28;20049;-68
2022/05/24 11:30:39;;;;;;;3.33;0.60;;;20.90;62.80;;;;;;5057845;28;20295;-68
2022/05/24 11:33:07;;;;;;;2.38;0.70;;;19.70;65.80;;;;;;5055246;28;20035;-68
2022/05/24 11:35:50;;;;;;;1.63;0.60;;;19.90;66.00;;;;;;5055630;28;20468;-68
2022/05/24 11:38:20;;;;;;;0.80;0.60;;;19.90;66.10;;;;;;5054827;28;20379;-67
2022/05/24 11:40:57;;;;;;;1.88;0.70;;;19.30;66.50;;;;;;5067885;28;20416;-68
2022/05/24 11:43:35;;;;;;;1.38;0.63;;;19.00;68.50;;;;;;5059335;28;20028;-68
2022/05/24 11:46:04;;;;;;;1.05;0.50;;;18.60;70.60;;;;;;5059240;28;20036;-69
2022/05/24 11:48:51;;;;;;;2.00;0.60;;;18.20;71.40;;;;;;5072632;28;20033;-68
2022/05/24 11:51:46;;;;;;;4.95;0.73;;;18.40;71.40;;;;;;5075476;28;20149;-68
2022/05/24 11:54:24;;;;;;;1.17;0.57;;;19.10;71.30;;;;;;5034823;28;20037;-68
2022/05/24 11:57:03;;;;;;;1.38;0.60;;;19.50;69.40;;;;;;5052649;28;20035;-68
2022/05/24 11:59:40;;;;;;;1.92;0.70;;;19.60;68.60;;;;;;5071259;28;20041;-68
2022/05/24 12:02:32;;;;;;;1.27;0.60;;;19.80;68.60;;;;;;5058063;28;20025;-68
2022/05/24 12:07:57;;;;;;;1.25;0.60;;;21.50;65.70;;;;;;5060250;28;20040;-68
2022/05/24 12:10:24;;;;;;;2.10;0.93;;;22.30;62.60;;;;;;5048921;28;20443;-68
2022/05/24 12:12:55;;;;;;;2.00;0.80;;;22.00;63.00;;;;;;5054343;28;20029;-68
2022/05/24 12:15:22;;;;;;;2.33;0.70;;;21.50;64.50;;;;;;5054098;28;20059;-68
2022/05/24 12:18:08;;;;;;;0.80;0.50;;;21.20;63.80;;;;;;5053836;28;20098;-68
2022/05/24 12:20:34;;;;;;;3.25;1.20;;;21.60;64.90;;;;;;5042905;28;20094;-68
2022/05/24 12:23:14;;;;;;;3.08;0.60;;;22.30;62.60;;;;;;5054634;28;20364;-67
2022/05/24 12:26:02;;;;;;;2.45;0.70;;;22.40;60.90;;;;;;5053701;28;20059;-67
2022/05/24 12:28:36;;;;;;;3.47;1.08;;;22.50;63.30;;;;;;5051715;28;20088;-67
2022/05/24 12:31:21;;;;;;;2.45;0.70;;;23.20;61.20;;;;;;5039620;28;20135;-67
2022/05/24 12:33:52;;;;;;;2.63;0.70;;;23.10;60.00;;;;;;5036216;28;20032;-68
2022/05/24 12:36:46;;;;;;;1.25;0.80;;;22.50;60.30;;;;;;5034668;28;20126;-67
2022/05/24 12:39:19;;;;;;;3.30;0.70;;;21.60;60.50;;;;;;5039566;28;20028;-67
2022/05/24 12:41:48;;;;;;;2.92;0.98;;;21.30;63.60;;;;;;5043839;28;20110;-68
2022/05/24 12:44:21;;;;;;;1.58;0.60;;;22.40;61.40;;;;;;5037486;28;20036;-67
2022/05/24 12:46:50;;;;;;;1.30;0.60;;;22.80;61.00;;;;;;5044155;28;20309;-67
2022/05/24 12:49:21;;;;;;;1.63;0.60;;;23.30;59.50;;;;;;5040736;28;20025;-68
2022/05/24 12:51:47;;;;;;;2.15;0.65;;;23.20;58.40;;;;;;5039402;28;20369;-67
2022/05/24 12:54:34;;;;;;;3.22;0.60;;;23.20;60.10;;;;;;5044140;28;20103;-67
2022/05/24 12:57:14;;;;;;;1.38;0.70;;;22.20;60.20;;;;;;5041927;28;20036;-68
2022/05/24 12:59:43;;;;;;;1.27;0.70;;;21.80;60.40;;;;;;5039717;28;20059;-68
2022/05/24 13:02:39;;;;;;;1.23;0.70;;;21.60;60.90;;;;;;5046710;28;20436;-68
2022/05/24 13:05:10;;;;;;;2.13;0.68;;;21.80;61.60;;;;;;5037204;28;20455;-68
2022/05/24 13:07:44;;;;;;;2.22;0.80;;;22.10;60.30;;;;;;5040268;28;20032;-68
2022/05/24 13:10:12;;;;;;;2.00;0.68;;;22.20;59.60;;;;;;5051172;28;20028;-68
2022/05/24 13:12:38;;;;;;;1.08;0.57;;;21.70;61.10;;;;;;5040418;28;20029;-68
2022/05/24 13:15:09;;;;;;;3.17;0.90;;;21.60;61.40;;;;;;5042267;28;21651;-69
2022/05/24 13:17:46;;;;;;;2.22;0.70;;;21.70;60.80;;;;;;5042987;28;20039;-68
2022/05/24 13:20:38;;;;;;;1.52;0.70;;;21.50;61.00;;;;;;5043211;28;20071;-68
2022/05/24 13:23:20;;;;;;;1.50;0.70;;;21.10;61.10;;;;;;5027004;28;20039;-68
2022/05/24 13:25:46;;;;;;;2.20;0.80;;;20.90;63.40;;;;;;5041217;28;20133;-67
2022/05/24 13:28:12;;;;;;;1.38;0.70;;;20.30;64.00;;;;;;5039972;28;20035;-68
2022/05/24 13:33:52;;;;;;;1.70;0.70;;;20.00;64.10;;;;;;5040126;28;20031;-68
2022/05/24 13:36:21;;;;;;;1.80;0.70;;;19.90;64.60;;;;;;5043115;28;20036;-67
2022/05/24 13:39:12;;;;;;;2.67;0.68;;;20.40;65.00;;;;;;5044100;28;20030;-67
2022/05/24 13:41:45;;;;;;;1.48;0.80;;;20.90;63.40;;;;;;5039931;28;20095;-68
2022/05/24 13:44:30;;;;;;;2.00;0.90;;;20.70;61.00;;;;;;5038873;28;20534;-68
2022/05/24 13:46:59;;;;;;;1.52;0.65;;;20.40;62.60;;;;;;5039842;28;20031;-68
2022/05/24 13:49:49;;;;;;;1.95;0.73;;;20.50;63.30;;;;;;5039741;28;20037;-68
2022/05/24 13:52:50;;;;;;;2.22;0.80;;;20.60;63.50;;;;;;5040717;28;20033;-68